Latest Weather Observations for Broome Port

IDW60801

Issued at 9:03 pm WST Monday 18 June 2018 (issued every 10 minutes, with the page automatically refreshed every 10 minutes)

About weather observations | Map of weather stations | Latest weather observations for WA | Other Formats
Station Details ID: 003102 Name: BROOME NTC AWS Lat: -18.00 Lon: 122.22 Height: 0.0 m
Data from the previous 72 hours. | See also: Recent months for locations in Western Australia
Date/Time
WST
Temp
°C
App
Temp
°C
Dew
Point
°C
Rel
Hum
%
Delta-T
°C
Wind Press
QNH
hPa
Press
MSL
hPa
Rain since
9am
mm
Dir  Spd
km/h
Gust
km/h
Spd
kts
Gust
kts
18/09:00pm 23.9 - - - - NW 4 15 2 8 1016.1 1016.1 -
18/08:30pm 23.7 - - - - NE 4 6 2 3 1016.0 1016.0 -
18/08:00pm 23.5 - - - - E 6 7 3 4 1015.7 1015.7 -
18/07:30pm 23.5 - - - - SSW 2 7 1 4 1015.2 1015.2 -
18/07:00pm 24.7 - - - - SW 9 11 5 6 1014.7 1014.7 -
18/06:30pm 24.4 - - - - SW 9 11 5 6 1014.5 1014.5 -
18/06:00pm 26.5 - - - - SSE 4 6 2 3 1014.1 1014.1 -
18/05:30pm 27.1 - - - - SSE 9 9 5 5 1013.8 1013.8 -
18/05:00pm 26.9 - - - - SSE 7 9 4 5 1013.5 1013.5 -
18/04:30pm 26.0 - - - - SSE 9 11 5 6 1012.9 1012.9 -
18/04:00pm 26.5 - - - - SSE 7 9 4 5 1012.6 1012.6 -
18/03:30pm 27.1 - - - - SE 13 15 7 8 1012.4 1012.4 -
18/03:00pm 27.5 - - - - SE 17 19 9 10 1012.3 1012.3 -
18/02:30pm 27.2 - - - - SE 19 20 10 11 1012.4 1012.4 -
18/02:00pm 26.4 - - - - ESE 20 22 11 12 1012.4 1012.4 -
18/01:30pm 26.6 - - - - ESE 19 20 10 11 1012.7 1012.7 -
18/01:00pm 25.4 - - - - ESE 20 24 11 13 1013.1 1013.1 -
18/12:30pm 24.7 - - - - ESE 20 24 11 13 1013.5 1013.5 -
18/12:00pm 24.3 - - - - ESE 24 28 13 15 1014.2 1014.2 -
18/11:30am 23.8 - - - - ESE 24 28 13 15 1014.9 1014.9 -
18/11:00am 23.3 - - - - ESE 26 32 14 17 1015.3 1015.3 -
18/10:30am 22.9 - - - - ESE 30 35 16 19 1015.8 1015.8 -
18/10:00am 22.4 - - - - ESE 33 41 18 22 1016.1 1016.1 -
18/09:30am 21.6 - - - - ESE 35 39 19 21 1016.6 1016.6 -
18/09:00am 20.9 - - - - ESE 35 41 19 22 1016.8 1016.8 -
18/08:30am 19.9 - - - - ESE 30 35 16 19 1016.9 1016.9 -
18/08:00am 19.4 - - - - ESE 26 30 14 16 1017.0 1017.0 -
18/07:30am 19.3 - - - - ESE 28 32 15 17 1016.8 1016.8 -
18/07:00am 19.4 - - - - ESE 28 33 15 18 1016.5 1016.5 -
18/06:30am 19.9 - - - - ESE 30 33 16 18 1016.2 1016.2 -
18/06:00am 19.9 - - - - ESE 24 28 13 15 1015.7 1015.7 -
18/05:30am 19.5 - - - - ESE 22 28 12 15 1015.4 1015.4 -
18/05:00am 19.4 - - - - ESE 24 28 13 15 1015.4 1015.4 -
18/04:30am 19.5 - - - - ESE 22 30 12 16 1015.2 1015.2 -
18/04:00am 19.6 - - - - ESE 20 24 11 13 1015.3 1015.3 -
18/03:30am 19.9 - - - - ESE 28 32 15 17 1015.0 1015.0 -
18/03:00am 20.2 - - - - ESE 33 37 18 20 1015.0 1015.0 -
18/02:30am 20.8 - - - - ESE 33 39 18 21 1015.4 1015.4 -
18/02:00am 21.0 - - - - ESE 28 35 15 19 1015.9 1015.9 -
18/01:30am 21.6 - - - - ESE 30 37 16 20 1016.1 1016.1 -
18/01:00am 22.4 - - - - SE 30 37 16 20 1016.2 1016.2 -
18/12:30am 22.5 - - - - SE 30 37 16 20 1016.3 1016.3 -
18/12:00am 22.9 - - - - SE 32 39 17 21 1016.4 1016.4 -
 
Date/Time
WST
Temp
°C
App
Temp
°C
Dew
Point
°C
Rel
Hum
%
Delta-T
°C
Wind Press
QNH
hPa
Press
MSL
hPa
Rain since
9am
mm
Dir  Spd
km/h
Gust
km/h
Spd
kts
Gust
kts
17/11:30pm 22.8 - - - - SE 32 37 17 20 1016.4 1016.4 -
17/11:00pm 23.4 - - - - SE 33 37 18 20 1016.5 1016.5 -
17/10:30pm 23.6 - - - - SE 32 37 17 20 1016.6 1016.6 -
17/10:00pm 23.7 - - - - SE 32 37 17 20 1016.7 1016.7 -
17/09:30pm 24.2 - - - - SE 28 35 15 19 1016.7 1016.7 -
17/09:00pm 24.3 - - - - SSE 28 32 15 17 1016.5 1016.5 -
17/08:30pm 24.5 - - - - SE 26 28 14 15 1016.5 1016.5 -
17/08:00pm 25.1 - - - - SE 20 24 11 13 1016.5 1016.5 -
17/07:30pm 25.2 - - - - SE 17 20 9 11 1016.4 1016.4 -
17/07:00pm 27.6 - - - - SE 20 22 11 12 1016.1 1016.1 -
17/06:30pm 28.8 - - - - SE 20 22 11 12 1015.7 1015.7 -
17/06:00pm 28.7 - - - - SE 22 24 12 13 1015.6 1015.6 -
17/05:30pm 27.7 - - - - SE 22 26 12 14 1015.2 1015.2 -
17/05:00pm 29.5 - - - - SE 24 28 13 15 1014.7 1014.7 -
17/04:30pm 27.8 - - - - SE 17 19 9 10 1014.6 1014.6 -
17/04:00pm 27.7 - - - - SE 9 11 5 6 1014.6 1014.6 -
17/03:30pm 28.6 - - - - ESE 13 15 7 8 1014.4 1014.4 -
17/03:00pm 26.9 - - - - ESE 17 19 9 10 1014.4 1014.4 -
17/02:30pm 29.0 - - - - ESE 22 24 12 13 1014.7 1014.7 -
17/02:00pm 28.1 - - - - ESE 22 24 12 13 1014.8 1014.8 -
17/01:30pm 27.5 - - - - ESE 22 24 12 13 1015.0 1015.0 -
17/01:00pm 27.3 - - - - ESE 26 28 14 15 1015.3 1015.3 -
17/12:30pm 26.9 - - - - ESE 24 26 13 14 1015.7 1015.7 -
17/12:00pm 25.9 - - - - ESE 20 24 11 13 1016.3 1016.3 -
17/11:30am 25.4 - - - - ESE 24 28 13 15 1016.8 1016.8 -
17/11:00am 24.8 - - - - ESE 28 32 15 17 1017.1 1017.1 -
17/10:30am 24.6 - - - - ESE 32 35 17 19 1017.5 1017.5 -
17/10:00am 24.3 - - - - ESE 37 43 20 23 1017.7 1017.7 -
17/09:30am 23.8 - - - - ESE 32 37 17 20 1017.9 1017.9 -
17/09:00am 23.0 - - - - ESE 37 43 20 23 1018.0 1018.0 -
17/08:30am 22.2 - - - - ESE 35 43 19 23 1018.0 1018.0 -
17/08:00am 21.0 - - - - ESE 28 32 15 17 1017.9 1017.9 -
17/07:30am 20.9 - - - - ESE 28 32 15 17 1017.9 1017.9 -
17/07:00am 21.1 - - - - ESE 28 32 15 17 1017.7 1017.7 -
17/06:30am 21.2 - - - - ESE 24 26 13 14 1017.4 1017.4 -
17/06:00am 21.1 - - - - ESE 24 28 13 15 1017.0 1017.0 -
17/05:30am 21.2 - - - - ESE 22 26 12 14 1016.7 1016.7 -
17/05:00am 22.1 - - - - ESE 24 28 13 15 1016.5 1016.5 -
17/04:30am 22.2 - - - - SE 28 32 15 17 1016.3 1016.3 -
17/04:00am 22.5 - - - - SE 32 35 17 19 1016.1 1016.1 -
17/03:30am 22.8 - - - - SE 28 33 15 18 1016.1 1016.1 -
17/03:00am 22.8 - - - - SE 22 26 12 14 1016.0 1016.0 -
17/02:30am 23.2 - - - - SE 22 26 12 14 1016.3 1016.3 -
17/02:00am 23.6 - - - - SE 24 28 13 15 1016.3 1016.3 -
17/01:30am 24.0 - - - - SE 20 22 11 12 1016.5 1016.5 -
17/01:00am 24.3 - - - - SE 15 19 8 10 1016.7 1016.7 -
17/12:30am 24.8 - - - - SE 15 17 8 9 1017.0 1017.0 -
17/12:00am 25.5 - - - - SE 19 22 10 12 1017.1 1017.1 -
 
Date/Time
WST
Temp
°C
App
Temp
°C
Dew
Point
°C
Rel
Hum
%
Delta-T
°C
Wind Press
QNH
hPa
Press
MSL
hPa
Rain since
9am
mm
Dir  Spd
km/h
Gust
km/h
Spd
kts
Gust
kts
16/11:30pm 25.0 - - - - S 11 13 6 7 1017.2 1017.2 -
16/11:00pm 24.0 - - - - S 17 19 9 10 1017.3 1017.3 -
16/10:30pm 23.3 - - - - S 11 15 6 8 1017.4 1017.4 -
16/10:00pm 24.6 - - - - SSW 7 11 4 6 1017.3 1017.3 -
16/09:30pm 25.0 - - - - CALM 0 0 0 0 1017.3 1017.3 -
16/09:00pm 25.6 - - - - SW 4 6 2 3 1017.2 1017.2 -
16/08:30pm 26.0 - - - - NW 4 6 2 3 1017.2 1017.2 -
16/08:00pm 25.4 - - - - WSW 2 6 1 3 1017.0 1017.0 -
16/07:30pm 26.7 - - - - NNW 15 20 8 11 1016.7 1016.7 -
16/07:00pm 26.9 - - - - NW 19 20 10 11 1016.2 1016.2 -
16/06:30pm 26.2 - - - - NW 20 22 11 12 1015.9 1015.9 -
16/06:00pm 26.4 - - - - NW 20 24 11 13 1015.5 1015.5 -
16/05:30pm 26.6 - - - - NW 17 19 9 10 1015.2 1015.2 -
16/05:00pm 27.4 - - - - NW 19 22 10 12 1014.8 1014.8 -
16/04:30pm 28.9 - - - - NNW 15 20 8 11 1014.6 1014.6 -
16/04:00pm 29.5 - - - - ESE 20 24 11 13 1014.3 1014.3 -
16/03:30pm 29.1 - - - - E 17 20 9 11 1014.0 1014.0 -
16/03:00pm 29.8 - - - - E 17 19 9 10 1014.0 1014.0 -
16/02:30pm 28.3 - - - - E 17 22 9 12 1014.1 1014.1 -
16/02:00pm 28.6 - - - - ESE 20 26 11 14 1014.2 1014.2 -
16/01:30pm 28.9 - - - - E 22 28 12 15 1014.3 1014.3 -
16/01:00pm 28.4 - - - - ESE 26 30 14 16 1014.6 1014.6 -
16/12:30pm 28.1 - - - - E 26 32 14 17 1015.0 1015.0 -
16/12:00pm 27.3 - - - - ESE 28 33 15 18 1015.5 1015.5 -
16/11:30am 26.5 - - - - ESE 28 35 15 19 1015.8 1015.8 -
16/11:00am 26.2 - - - - ESE 28 33 15 18 1016.2 1016.2 -
16/10:30am 25.6 - - - - ESE 33 39 18 21 1016.5 1016.5 -
16/10:00am 25.0 - - - - ESE 28 32 15 17 1016.8 1016.8 -
16/09:30am 24.7 - - - - ESE 28 32 15 17 1017.1 1017.1 -
16/09:00am 24.5 - - - - ESE 30 35 16 19 1017.0 1017.0 -
16/08:30am 23.7 - - - - ESE 24 28 13 15 1017.0 1017.0 -
16/08:00am 22.1 - - - - ESE 15 20 8 11 1017.0 1017.0 -
16/07:30am 22.0 - - - - ESE 19 22 10 12 1016.7 1016.7 -
16/07:00am 22.1 - - - - SE 22 26 12 14 1016.4 1016.4 -
16/06:30am 22.3 - - - - SE 24 28 13 15 1016.1 1016.1 -
16/06:00am 22.3 - - - - SE 26 32 14 17 1015.7 1015.7 -
16/05:30am 22.3 - - - - SE 26 32 14 17 1015.5 1015.5 -
16/05:00am 22.3 - - - - SE 24 28 13 15 1015.3 1015.3 -
16/04:30am 22.3 - - - - SE 22 24 12 13 1015.3 1015.3 -
16/04:00am 22.3 - - - - SE 22 26 12 14 1015.3 1015.3 -
16/03:30am 22.0 - - - - ESE 17 19 9 10 1015.3 1015.3 -
16/03:00am 22.5 - - - - SE 17 24 9 13 1015.3 1015.3 -
16/02:30am 22.8 - - - - SE 22 28 12 15 1015.2 1015.2 -
16/02:00am 23.1 - - - - SE 24 28 13 15 1015.3 1015.3 -
16/01:30am 23.2 - - - - SE 22 26 12 14 1015.5 1015.5 -
16/01:00am 23.2 - - - - SE 20 24 11 13 1015.7 1015.7 -
16/12:30am 23.1 - - - - SE 24 28 13 15 1015.9 1015.9 -
16/12:00am 23.0 - - - - SE 22 24 12 13 1015.9 1015.9 -
 
Date/Time
WST
Temp
°C
App
Temp
°C
Dew
Point
°C
Rel
Hum
%
Delta-T
°C
Wind Press
QNH
hPa
Press
MSL
hPa
Rain since
9am
mm
Dir  Spd
km/h
Gust
km/h
Spd
kts
Gust
kts
15/11:30pm 23.4 - - - - SSE 22 26 12 14 1016.0 1016.0 -
15/11:00pm 23.5 - - - - SSE 22 28 12 15 1016.0 1016.0 -
15/10:30pm 23.8 - - - - SSE 24 28 13 15 1016.1 1016.1 -
15/10:00pm 24.4 - - - - SSE 24 28 13 15 1016.0 1016.0 -
15/09:30pm 24.3 - - - - SSE 19 22 10 12 1015.9 1015.9 -

Other Formats:

Comma delimited format used in spreadsheet applications
http://www.bom.gov.au/fwo/IDW60801/IDW60801.95202.axf

JavaScript Object Notation format (JSON) in row-major order
http://www.bom.gov.au/fwo/IDW60801/IDW60801.95202.json